Time;durP1;ratioP1;P1;durP2;ratioP2;P2;SDS_P1;SDS_P2;PMS_P1;PMS_P2;Temp;Humidity;BMP_temperature;BMP_pressure;BME280_temperature;BME280_humidity;BME280_pressure;Samples;Min_cycle;Max_cycle;Signal;HPM_P1;HPM_P2
2021/03/25 00:02:05;;;;;;;26.50;18.25;;;8.40;85.20;;;;;;5033583;28;20020;-73
2021/03/25 00:04:31;;;;;;;30.85;20.77;;;8.40;85.20;;;;;;5081595;28;20080;-73
2021/03/25 00:06:58;;;;;;;33.63;21.35;;;8.40;85.20;;;;;;5064100;28;20024;-73
2021/03/25 00:09:29;;;;;;;29.05;21.42;;;8.30;85.60;;;;;;5081696;28;20008;-73
2021/03/25 00:11:55;;;;;;;33.55;20.98;;;8.30;85.60;;;;;;5080546;28;20194;-73
2021/03/25 00:14:21;;;;;;;28.10;20.58;;;8.30;85.70;;;;;;5081493;28;20023;-73
2021/03/25 00:16:47;;;;;;;27.33;18.90;;;8.30;85.60;;;;;;5077436;28;20035;-73
2021/03/25 00:19:12;;;;;;;31.13;20.33;;;8.30;85.60;;;;;;5064854;28;20011;-73
2021/03/25 00:21:38;;;;;;;32.45;21.65;;;8.30;85.80;;;;;;5081404;28;20019;-73
2021/03/25 00:24:04;;;;;;;37.88;22.70;;;8.30;85.70;;;;;;5081683;28;20213;-73
2021/03/25 00:26:30;;;;;;;36.72;22.55;;;8.30;85.80;;;;;;5070317;28;20016;-73
2021/03/25 00:28:56;;;;;;;32.47;22.85;;;8.20;85.70;;;;;;5028860;28;20021;-73
2021/03/25 00:31:21;;;;;;;32.80;22.02;;;8.30;85.90;;;;;;5081452;28;20023;-74
2021/03/25 00:33:47;;;;;;;33.17;21.48;;;8.30;85.80;;;;;;5081427;28;20020;-73
2021/03/25 00:36:13;;;;;;;33.60;21.63;;;8.30;85.70;;;;;;5073130;28;20229;-73
2021/03/25 00:38:38;;;;;;;29.23;20.80;;;8.20;85.80;;;;;;5046763;28;20214;-73
2021/03/25 00:41:04;;;;;;;27.23;18.20;;;8.20;86.00;;;;;;5045291;28;20023;-73
2021/03/25 00:43:30;;;;;;;30.38;20.52;;;8.20;86.10;;;;;;5068340;28;20115;-73
2021/03/25 00:45:56;;;;;;;32.67;22.10;;;8.20;86.00;;;;;;5059072;28;20017;-73
2021/03/25 00:48:22;;;;;;;33.50;21.83;;;8.20;86.00;;;;;;5045229;28;20019;-73
2021/03/25 00:50:52;;;;;;;31.92;21.27;;;8.10;86.10;;;;;;5050025;28;20039;-74
2021/03/25 00:53:24;;;;;;;31.25;20.42;;;8.10;86.20;;;;;;5066110;28;20040;-73
2021/03/25 00:55:50;;;;;;;34.72;23.27;;;8.10;86.40;;;;;;5077913;28;20021;-73
2021/03/25 00:58:16;;;;;;;35.55;22.63;;;8.10;86.50;;;;;;5068544;28;20211;-74
2021/03/25 01:00:43;;;;;;;33.88;22.63;;;8.10;86.70;;;;;;5081415;28;20055;-73
2021/03/25 01:03:09;;;;;;;32.63;21.30;;;8.10;86.70;;;;;;5071419;28;20021;-73
2021/03/25 01:05:34;;;;;;;31.73;21.70;;;8.10;86.70;;;;;;5049088;28;20017;-73
2021/03/25 01:08:00;;;;;;;33.42;21.48;;;8.10;86.70;;;;;;5051126;28;20047;-72
2021/03/25 01:10:28;;;;;;;29.75;20.85;;;8.10;86.70;;;;;;5051755;28;20017;-73
2021/03/25 01:12:53;;;;;;;34.42;21.58;;;8.00;86.70;;;;;;5069598;28;20066;-73
2021/03/25 01:15:19;;;;;;;37.13;24.25;;;8.00;86.90;;;;;;5085520;28;20310;-73
2021/03/25 01:17:53;;;;;;;37.05;26.27;;;8.00;87.10;;;;;;5076221;28;20016;-73
2021/03/25 01:20:25;;;;;;;36.83;25.33;;;7.90;87.40;;;;;;5052994;28;20009;-73
2021/03/25 01:22:51;;;;;;;37.85;26.75;;;7.80;87.80;;;;;;5050427;28;20016;-73
2021/03/25 01:25:17;;;;;;;37.58;24.40;;;7.80;88.70;;;;;;5049296;28;20013;-73
2021/03/25 01:27:42;;;;;;;37.67;24.20;;;7.80;89.50;;;;;;5085597;28;20020;-73
2021/03/25 01:30:09;;;;;;;34.67;22.45;;;7.80;90.20;;;;;;5088944;28;20017;-72
2021/03/25 01:32:34;;;;;;;37.22;24.60;;;7.80;90.40;;;;;;5099057;28;20031;-73
2021/03/25 01:35:00;;;;;;;37.88;24.58;;;7.80;90.80;;;;;;5098962;28;20036;-73
2021/03/25 01:37:26;;;;;;;35.58;23.15;;;7.70;91.00;;;;;;5083375;28;20118;-73
2021/03/25 01:39:51;;;;;;;38.22;26.02;;;7.60;91.50;;;;;;5098083;28;20029;-73
2021/03/25 01:42:27;;;;;;;35.72;23.85;;;7.60;91.90;;;;;;5098611;28;20027;-73
2021/03/25 01:44:53;;;;;;;43.17;26.60;;;7.40;92.30;;;;;;5076547;28;20016;-75
2021/03/25 01:47:19;;;;;;;35.08;24.25;;;7.40;92.70;;;;;;5081053;28;20058;-73
2021/03/25 01:49:44;;;;;;;42.40;27.98;;;7.30;93.00;;;;;;5084729;28;20229;-73
2021/03/25 01:52:19;;;;;;;40.83;26.63;;;7.30;93.30;;;;;;5067598;28;20402;-73
2021/03/25 01:54:54;;;;;;;42.55;26.95;;;7.20;93.40;;;;;;5084472;28;20012;-73
2021/03/25 01:57:46;;;;;;;40.55;26.73;;;7.20;93.50;;;;;;5067736;28;20005;-73
2021/03/25 02:00:42;;;;;;;47.78;31.50;;;7.10;93.60;;;;;;5046956;28;20033;-73
2021/03/25 02:03:33;;;;;;;40.78;26.80;;;7.10;93.70;;;;;;5057454;28;20028;-73
2021/03/25 02:06:23;;;;;;;42.55;27.48;;;7.10;93.90;;;;;;5075515;28;20016;-74
2021/03/25 02:08:57;;;;;;;40.95;26.30;;;7.10;94.10;;;;;;5084035;28;20050;-73
2021/03/25 02:11:39;;;;;;;36.47;24.23;;;7.10;94.20;;;;;;5084696;28;20013;-73
2021/03/25 02:14:30;;;;;;;35.42;22.95;;;7.10;94.30;;;;;;5083569;28;20023;-73
2021/03/25 02:17:38;;;;;;;34.17;20.80;;;7.10;94.30;;;;;;5075279;28;20025;-73
2021/03/25 02:20:28;;;;;;;26.20;17.92;;;7.20;94.10;;;;;;5064057;28;20004;-73
2021/03/25 02:23:12;;;;;;;24.63;15.85;;;7.30;93.80;;;;;;5084240;28;20016;-73
2021/03/25 02:25:54;;;;;;;29.27;19.17;;;7.40;93.60;;;;;;5083950;28;20043;-73
2021/03/25 02:28:38;;;;;;;;;;;7.40;93.20;;;;;;5082663;28;20017;-73
2021/03/25 02:31:13;;;;;;;30.30;18.55;;;7.40;93.10;;;;;;5075374;28;19901;-73
2021/03/25 02:33:39;;;;;;;27.70;18.83;;;7.40;93.00;;;;;;5064194;28;20258;-73
2021/03/25 02:36:07;;;;;;;25.65;18.00;;;7.40;93.00;;;;;;5050814;28;20004;-73
2021/03/25 02:38:36;;;;;;;31.27;19.10;;;7.50;92.90;;;;;;5060317;28;20009;-73
2021/03/25 02:41:04;;;;;;;27.33;17.92;;;7.40;92.80;;;;;;5047022;28;20047;-73
2021/03/25 02:43:56;;;;;;;22.73;16.15;;;7.50;92.70;;;;;;5030547;28;20062;-73
2021/03/25 02:46:27;;;;;;;29.38;19.00;;;7.50;92.70;;;;;;5069903;28;20005;-73
2021/03/25 02:48:54;;;;;;;26.90;19.42;;;7.50;92.60;;;;;;5082993;28;20080;-73
2021/03/25 02:51:54;;;;;;;25.92;18.23;;;7.50;92.60;;;;;;5066021;28;20016;-73
2021/03/25 02:54:20;;;;;;;31.05;20.38;;;7.50;92.60;;;;;;5062355;28;20079;-73
2021/03/25 02:57:19;;;;;;;25.23;17.63;;;7.50;92.50;;;;;;5064591;28;20330;-73
2021/03/25 02:59:46;;;;;;;31.02;19.50;;;7.50;92.50;;;;;;5078620;28;20279;-73
2021/03/25 03:02:28;;;;;;;25.38;17.00;;;7.50;92.50;;;;;;5065822;28;20020;-73
2021/03/25 03:05:23;;;;;;;24.85;16.85;;;7.50;92.50;;;;;;5079918;28;20012;-73
2021/03/25 03:08:02;;;;;;;28.52;17.33;;;7.50;92.40;;;;;;5062079;28;20025;-73
2021/03/25 03:10:33;;;;;;;21.25;13.88;;;7.50;92.30;;;;;;5062434;28;20072;-73
2021/03/25 03:12:59;;;;;;;23.00;13.43;;;7.50;92.20;;;;;;5046334;28;20022;-74
2021/03/25 03:15:32;;;;;;;15.90;11.93;;;7.60;92.10;;;;;;5081999;28;20028;-73
2021/03/25 03:18:02;;;;;;;20.45;13.40;;;7.60;92.00;;;;;;5063132;28;20097;-74
2021/03/25 03:20:32;;;;;;;19.25;14.02;;;7.60;91.80;;;;;;5062410;28;20012;-73
2021/03/25 03:22:58;;;;;;;16.80;11.40;;;7.50;91.70;;;;;;5046744;28;20079;-73
2021/03/25 03:25:24;;;;;;;18.35;12.82;;;7.50;91.50;;;;;;5029396;28;20020;-73
2021/03/25 03:27:57;;;;;;;19.15;12.85;;;7.60;91.40;;;;;;5046893;28;20046;-73
2021/03/25 03:30:27;;;;;;;16.15;11.50;;;7.50;91.40;;;;;;5046349;28;20044;-74
2021/03/25 03:33:14;;;;;;;19.13;12.70;;;7.50;91.40;;;;;;5045774;28;20091;-74
2021/03/25 03:35:45;;;;;;;17.90;11.98;;;7.50;91.40;;;;;;5052277;28;20040;-74
2021/03/25 03:38:24;;;;;;;17.13;10.88;;;7.50;91.40;;;;;;5062919;28;20020;-74
2021/03/25 03:40:52;;;;;;;13.10;9.05;;;7.50;91.30;;;;;;5054704;28;20080;-74
2021/03/25 03:43:18;;;;;;;11.48;7.85;;;7.50;91.20;;;;;;5045962;28;20009;-74
2021/03/25 03:45:53;;;;;;;16.90;10.82;;;7.50;91.20;;;;;;5029361;28;20032;-74
2021/03/25 03:48:24;;;;;;;16.23;9.85;;;7.50;91.10;;;;;;5062345;28;20013;-74
2021/03/25 03:50:51;;;;;;;14.55;11.20;;;7.50;91.10;;;;;;5064122;28;20379;-74
2021/03/25 03:53:17;;;;;;;14.27;9.30;;;7.50;91.00;;;;;;5081987;28;20107;-74
2021/03/25 03:55:42;;;;;;;9.20;6.05;;;7.40;90.90;;;;;;5080495;28;20029;-74
2021/03/25 03:58:11;;;;;;;10.02;6.60;;;7.50;91.00;;;;;;5082085;28;20062;-74
2021/03/25 04:00:44;;;;;;;14.55;8.23;;;7.40;90.80;;;;;;5076331;28;20020;-74
2021/03/25 04:03:46;;;;;;;15.50;9.40;;;7.40;90.60;;;;;;5073379;28;20043;-74
2021/03/25 04:06:31;;;;;;;13.32;9.30;;;7.30;90.60;;;;;;5021122;28;20017;-74
2021/03/25 04:09:15;;;;;;;17.77;10.68;;;7.20;90.80;;;;;;5005313;28;20101;-74
2021/03/25 04:11:51;;;;;;;12.02;8.20;;;7.10;90.70;;;;;;5004855;28;20015;-74
2021/03/25 04:14:24;;;;;;;12.00;8.25;;;7.10;90.80;;;;;;5006651;28;20061;-74
2021/03/25 04:16:49;;;;;;;13.32;8.80;;;7.00;90.80;;;;;;5014703;28;20013;-74
2021/03/25 04:19:23;;;;;;;13.90;8.10;;;6.90;90.90;;;;;;4992188;28;20010;-74
2021/03/25 04:21:58;;;;;;;15.48;7.88;;;6.90;91.00;;;;;;5041422;28;20117;-74
2021/03/25 04:24:27;;;;;;;12.98;7.57;;;6.80;91.00;;;;;;5024012;28;20092;-74
2021/03/25 04:27:07;;;;;;;14.07;8.07;;;6.80;91.10;;;;;;5041483;28;20376;-74
2021/03/25 04:29:40;;;;;;;17.05;9.43;;;6.80;91.10;;;;;;5029698;28;20314;-72
2021/03/25 04:32:06;;;;;;;12.15;8.40;;;6.70;91.10;;;;;;5028347;28;20051;-74
2021/03/25 04:34:32;;;;;;;14.30;8.27;;;6.70;91.30;;;;;;5027800;28;20021;-74
2021/03/25 04:36:57;;;;;;;11.38;8.05;;;6.60;91.30;;;;;;5011532;28;20250;-74
2021/03/25 04:39:23;;;;;;;11.90;8.15;;;6.60;91.40;;;;;;5032750;28;20032;-73
2021/03/25 04:41:49;;;;;;;13.15;8.20;;;6.60;91.40;;;;;;5049649;28;20071;-73
2021/03/25 04:44:31;;;;;;;14.77;9.02;;;6.50;91.40;;;;;;5066095;28;20013;-72
2021/03/25 04:47:25;;;;;;;13.07;8.57;;;6.50;91.50;;;;;;5074890;28;20276;-71
2021/03/25 04:50:00;;;;;;;15.50;8.55;;;6.40;91.60;;;;;;5068847;28;20016;-71
2021/03/25 04:52:30;;;;;;;15.88;9.40;;;6.40;91.70;;;;;;5049341;28;20072;-72
2021/03/25 04:55:08;;;;;;;12.13;6.93;;;6.40;91.90;;;;;;5065346;28;20020;-73
2021/03/25 04:57:38;;;;;;;13.90;7.55;;;6.40;91.90;;;;;;5078531;28;20038;-72
2021/03/25 05:00:14;;;;;;;15.07;9.40;;;6.40;92.00;;;;;;5085149;28;20005;-72
2021/03/25 05:02:41;;;;;;;16.83;10.15;;;6.40;92.00;;;;;;5074019;28;20420;-74
2021/03/25 05:05:08;;;;;;;14.40;8.35;;;6.30;92.10;;;;;;5067880;28;20039;-73
2021/03/25 05:07:35;;;;;;;14.45;8.65;;;6.30;92.00;;;;;;5078542;28;20356;-74
2021/03/25 05:10:01;;;;;;;12.80;7.28;;;6.30;92.20;;;;;;5081723;28;20384;-73
2021/03/25 05:12:26;;;;;;;13.90;7.97;;;6.20;92.20;;;;;;5064623;28;20025;-74
2021/03/25 05:15:06;;;;;;;16.50;8.32;;;6.20;92.20;;;;;;5064644;28;20051;-74
2021/03/25 05:17:40;;;;;;;18.80;9.90;;;6.20;92.30;;;;;;5064363;28;20075;-73
2021/03/25 05:20:22;;;;;;;19.02;10.80;;;6.20;92.30;;;;;;5064934;28;20013;-74
2021/03/25 05:23:04;;;;;;;20.48;12.20;;;6.20;92.40;;;;;;5064678;28;20025;-74
2021/03/25 05:25:32;;;;;;;21.50;12.07;;;6.20;92.50;;;;;;5064393;28;20032;-74
2021/03/25 05:28:11;;;;;;;21.15;11.80;;;6.20;92.40;;;;;;5080882;28;20040;-74
2021/03/25 05:30:38;;;;;;;21.00;10.60;;;6.10;92.50;;;;;;5067201;28;20388;-73
2021/03/25 05:33:13;;;;;;;15.75;9.82;;;6.10;92.60;;;;;;5084254;28;20029;-73
2021/03/25 05:35:45;;;;;;;12.95;7.53;;;6.10;92.60;;;;;;5084072;28;20046;-74
2021/03/25 05:38:11;;;;;;;13.68;8.93;;;6.10;92.60;;;;;;5055090;28;20036;-73
2021/03/25 05:40:48;;;;;;;12.48;7.28;;;6.10;92.60;;;;;;5067843;28;20305;-73
2021/03/25 05:43:29;;;;;;;16.48;10.23;;;6.10;92.50;;;;;;5084681;28;20062;-73
2021/03/25 05:46:20;;;;;;;12.75;7.22;;;6.10;92.40;;;;;;5085283;28;20008;-73
2021/03/25 05:49:04;;;;;;;12.35;7.22;;;6.10;92.40;;;;;;5066594;28;20271;-73
2021/03/25 05:51:37;;;;;;;10.00;6.13;;;6.10;92.40;;;;;;5080146;28;20012;-73
2021/03/25 05:54:05;;;;;;;11.00;6.60;;;6.20;92.30;;;;;;5068415;28;20029;-73
2021/03/25 05:56:50;;;;;;;8.40;4.80;;;6.20;92.20;;;;;;5070337;28;20310;-73
2021/03/25 05:59:16;;;;;;;7.07;4.45;;;6.20;92.10;;;;;;5068712;28;20040;-73
2021/03/25 06:02:11;;;;;;;11.77;6.80;;;6.30;92.10;;;;;;5087464;28;20008;-73
2021/03/25 06:04:37;;;;;;;11.27;7.40;;;6.40;92.00;;;;;;5057590;28;20025;-74
2021/03/25 06:07:17;;;;;;;12.85;6.43;;;6.40;91.90;;;;;;5065154;28;20063;-73
2021/03/25 06:09:55;;;;;;;8.10;5.40;;;6.40;91.90;;;;;;5069705;28;20229;-73
2021/03/25 06:12:26;;;;;;;13.43;7.82;;;6.40;91.90;;;;;;5065988;28;20048;-73
2021/03/25 06:14:58;;;;;;;12.40;7.60;;;6.40;91.80;;;;;;5064834;28;20009;-73
2021/03/25 06:17:51;;;;;;;13.88;7.20;;;6.40;91.90;;;;;;5075964;28;20183;-73
2021/03/25 06:20:43;;;;;;;11.50;7.07;;;6.40;91.70;;;;;;5064737;28;20430;-73
2021/03/25 06:23:22;;;;;;;11.75;7.30;;;6.40;92.00;;;;;;5080970;28;20037;-72
2021/03/25 06:26:16;;;;;;;12.98;7.57;;;6.50;91.70;;;;;;5065684;28;20202;-73
2021/03/25 06:28:47;;;;;;;15.80;9.40;;;6.50;91.50;;;;;;5079134;28;20009;-73
2021/03/25 06:31:29;;;;;;;16.52;10.13;;;6.50;91.60;;;;;;5066638;28;20008;-73
2021/03/25 06:34:30;;;;;;;;;;;6.40;91.60;;;;;;5066471;28;20345;-72
2021/03/25 06:37:04;;;;;;;23.17;12.98;;;6.40;91.50;;;;;;5005895;28;19925;-73
2021/03/25 06:39:44;;;;;;;18.02;9.27;;;6.30;91.60;;;;;;5035385;28;20016;-73
2021/03/25 06:42:21;;;;;;;11.85;7.72;;;6.40;91.70;;;;;;5052994;28;20020;-73
2021/03/25 06:45:21;;;;;;;9.77;5.78;;;6.50;91.70;;;;;;5067791;28;20322;-73
2021/03/25 06:47:59;;;;;;;11.48;6.15;;;6.60;91.50;;;;;;5047585;28;20226;-73
2021/03/25 06:50:35;;;;;;;9.43;5.47;;;6.80;91.20;;;;;;5062450;28;20073;-73
2021/03/25 06:53:31;;;;;;;11.02;6.15;;;6.80;91.10;;;;;;5064949;28;20052;-73
2021/03/25 06:56:04;;;;;;;8.82;5.25;;;7.10;90.80;;;;;;5022858;28;20030;-73
2021/03/25 06:58:48;;;;;;;11.15;5.18;;;7.20;90.30;;;;;;5006932;28;20343;-73
2021/03/25 07:01:27;;;;;;;9.82;5.45;;;7.40;89.90;;;;;;4991116;28;20045;-73
2021/03/25 07:03:55;;;;;;;7.22;4.20;;;7.40;89.40;;;;;;4973484;28;21252;-73
2021/03/25 07:06:21;;;;;;;11.77;5.95;;;7.50;89.30;;;;;;5005409;28;20037;-72
2021/03/25 07:08:48;;;;;;;11.20;6.20;;;7.70;88.50;;;;;;4991085;28;20038;-73
2021/03/25 07:11:16;;;;;;;11.90;7.32;;;7.70;87.60;;;;;;5003138;28;20227;-73
2021/03/25 07:13:43;;;;;;;12.60;6.78;;;7.80;86.50;;;;;;4997770;28;20048;-73
2021/03/25 07:16:09;;;;;;;16.40;8.15;;;7.80;86.50;;;;;;4991058;28;20379;-73
2021/03/25 07:18:45;;;;;;;13.65;7.63;;;7.90;85.50;;;;;;4973321;28;20067;-73
2021/03/25 07:21:31;;;;;;;15.60;8.27;;;8.20;84.80;;;;;;4986046;28;20014;-73
2021/03/25 07:24:01;;;;;;;11.30;5.93;;;9.50;82.70;;;;;;4981307;28;20017;-73
2021/03/25 07:26:30;;;;;;;9.60;5.30;;;10.80;77.50;;;;;;4996806;28;20484;-74
2021/03/25 07:29:17;;;;;;;10.65;6.22;;;11.60;73.30;;;;;;4991994;28;20026;-74
2021/03/25 07:31:51;;;;;;;15.85;8.73;;;11.60;70.80;;;;;;4989451;28;20047;-75
2021/03/25 07:34:50;;;;;;;12.13;7.18;;;11.30;70.40;;;;;;5045691;28;20075;-75
2021/03/25 07:37:45;;;;;;;11.55;5.97;;;11.90;70.30;;;;;;4986512;28;20356;-75
2021/03/25 07:40:21;;;;;;;12.20;6.75;;;12.60;67.30;;;;;;4885084;29;20442;-74
2021/03/25 07:42:47;;;;;;;12.75;6.05;;;12.50;65.90;;;;;;4888225;29;20040;-75
2021/03/25 07:45:25;;;;;;;9.18;4.25;;;12.90;66.40;;;;;;4873326;29;20035;-74
2021/03/25 07:47:51;;;;;;;9.15;4.88;;;13.70;62.50;;;;;;4897426;29;20040;-74
2021/03/25 07:50:32;;;;;;;9.40;5.95;;;13.60;61.00;;;;;;4884630;29;20249;-75
2021/03/25 07:52:58;;;;;;;11.85;6.15;;;13.40;61.50;;;;;;4885983;29;20071;-75
2021/03/25 07:55:30;;;;;;;11.10;6.18;;;13.60;60.30;;;;;;4888353;29;20024;-75
2021/03/25 07:57:56;;;;;;;11.98;6.57;;;13.50;59.80;;;;;;4882049;29;20333;-74
2021/03/25 08:00:26;;;;;;;11.57;5.72;;;13.40;61.10;;;;;;4879851;29;20081;-74
2021/03/25 08:03:17;;;;;;;10.07;5.30;;;13.70;60.30;;;;;;4883983;29;20040;-75
2021/03/25 08:05:44;;;;;;;9.48;4.47;;;14.00;59.30;;;;;;4885260;29;20036;-76
2021/03/25 08:08:38;;;;;;;10.48;5.30;;;14.60;58.30;;;;;;4894607;29;20035;-74
2021/03/25 08:11:10;;;;;;;9.98;5.05;;;14.80;57.20;;;;;;4865230;29;20414;-75
2021/03/25 08:13:36;;;;;;;10.63;4.85;;;14.40;57.90;;;;;;4917749;28;20038;-74
2021/03/25 08:16:12;;;;;;;7.63;4.22;;;14.80;57.60;;;;;;4960776;28;20229;-75
2021/03/25 08:18:56;;;;;;;9.68;5.10;;;15.40;55.50;;;;;;5049013;28;20016;-74
2021/03/25 08:21:25;;;;;;;11.05;5.18;;;15.10;55.00;;;;;;5024477;28;20031;-75
2021/03/25 08:23:53;;;;;;;10.43;5.30;;;14.80;55.30;;;;;;5036841;28;20242;-74
2021/03/25 08:26:51;;;;;;;7.50;4.60;;;14.90;55.60;;;;;;5032710;28;20048;-75
2021/03/25 08:30:01;;;;;;;9.32;4.72;;;15.20;55.00;;;;;;5026003;28;20085;-76
2021/03/25 08:32:33;;;;;;;8.48;5.07;;;15.60;54.10;;;;;;4996132;28;20038;-74
2021/03/25 08:35:07;;;;;;;11.68;5.18;;;15.10;53.70;;;;;;5019726;28;20356;-74
2021/03/25 08:37:48;;;;;;;6.63;3.85;;;14.80;54.90;;;;;;5027262;28;20046;-74
2021/03/25 08:40:20;;;;;;;6.10;4.05;;;15.20;54.70;;;;;;5033042;28;20032;-75
2021/03/25 08:42:50;;;;;;;;;;;15.60;53.60;;;;;;5027669;28;20123;-76
2021/03/25 08:45:51;;;;;;;12.07;5.53;;;15.30;53.20;;;;;;5025118;28;19919;-74
2021/03/25 08:48:40;;;;;;;7.35;3.95;;;14.90;53.70;;;;;;5021387;28;20281;-74
2021/03/25 08:51:12;;;;;;;9.70;4.07;;;15.40;53.40;;;;;;5031085;28;20091;-74
2021/03/25 08:53:51;;;;;;;6.68;3.33;;;15.60;53.20;;;;;;5014992;28;20286;-76
2021/03/25 08:56:36;;;;;;;5.93;3.60;;;16.20;52.20;;;;;;4980878;28;20270;-75
2021/03/25 08:59:05;;;;;;;7.00;3.60;;;16.20;51.30;;;;;;5008585;28;20450;-74
2021/03/25 09:01:34;;;;;;;9.30;4.00;;;16.20;51.10;;;;;;5026395;28;20046;-77
2021/03/25 09:04:02;;;;;;;7.35;3.45;;;15.70;51.50;;;;;;4990526;28;20693;-75
2021/03/25 09:06:35;;;;;;;6.15;3.40;;;16.20;51.20;;;;;;4995584;28;20718;-74
2021/03/25 09:09:25;;;;;;;9.02;4.05;;;16.40;50.30;;;;;;4965953;28;20093;-76
2021/03/25 09:11:51;;;;;;;6.90;3.70;;;16.20;49.40;;;;;;5018550;28;20036;-78
2021/03/25 09:14:21;;;;;;;8.80;3.25;;;16.40;49.50;;;;;;5035390;28;20394;-78
2021/03/25 09:16:46;;;;;;;7.72;3.78;;;16.40;48.80;;;;;;5042569;28;20419;-78
2021/03/25 09:19:27;;;;;;;7.65;3.65;;;16.30;49.00;;;;;;5013006;28;20012;-78
2021/03/25 09:21:57;;;;;;;8.70;4.10;;;16.50;49.10;;;;;;5024013;28;20213;-76
2021/03/25 09:24:23;;;;;;;8.18;4.10;;;16.60;48.20;;;;;;5008853;28;20183;-76
2021/03/25 09:27:05;;;;;;;9.30;3.97;;;16.10;48.70;;;;;;5006887;28;20021;-76
2021/03/25 09:29:33;;;;;;;9.27;4.18;;;15.20;49.70;;;;;;5021944;28;20083;-77
2021/03/25 09:31:58;;;;;;;9.15;3.60;;;14.40;51.80;;;;;;4997345;28;20024;-78
2021/03/25 09:34:24;;;;;;;8.43;3.53;;;14.00;52.90;;;;;;5016981;28;21750;-77
2021/03/25 09:37:12;;;;;;;11.27;4.50;;;13.90;53.80;;;;;;5038779;28;20024;-77
2021/03/25 09:39:38;;;;;;;9.00;4.50;;;14.00;53.80;;;;;;5020479;28;21074;-79
2021/03/25 09:42:25;;;;;;;8.85;3.95;;;14.20;53.70;;;;;;5010406;28;20016;-77
2021/03/25 09:44:51;;;;;;;13.82;5.30;;;14.60;52.80;;;;;;5024219;28;20039;-78
2021/03/25 09:47:30;;;;;;;8.88;3.65;;;15.20;52.20;;;;;;5003439;28;20020;-79
2021/03/25 09:50:16;;;;;;;10.15;3.70;;;15.60;49.90;;;;;;5039196;28;20306;-77
2021/03/25 09:53:00;;;;;;;8.55;3.33;;;15.50;50.00;;;;;;5041303;28;20242;-78
2021/03/25 09:55:26;;;;;;;8.63;3.15;;;15.20;50.40;;;;;;5044018;28;20016;-77
2021/03/25 09:57:52;;;;;;;5.97;2.85;;;15.40;49.90;;;;;;5031785;28;20013;-77
2021/03/25 10:00:18;;;;;;;25.02;7.75;;;15.70;49.30;;;;;;5010868;28;20027;-77
2021/03/25 10:02:44;;;;;;;13.27;5.07;;;15.60;49.60;;;;;;5035151;28;20165;-77
2021/03/25 10:05:25;;;;;;;7.45;3.20;;;15.50;49.70;;;;;;5024197;28;20058;-78
2021/03/25 10:07:58;;;;;;;7.28;2.90;;;15.50;49.80;;;;;;5044094;28;20086;-78
2021/03/25 10:10:30;;;;;;;8.20;3.10;;;15.30;49.50;;;;;;5038824;28;20521;-77
2021/03/25 10:13:02;;;;;;;7.40;2.83;;;15.30;49.80;;;;;;5049931;28;20234;-78
2021/03/25 10:15:30;;;;;;;15.75;4.97;;;15.90;49.00;;;;;;5049910;28;20302;-77
2021/03/25 10:17:59;;;;;;;9.23;2.90;;;15.80;47.80;;;;;;5047401;28;20056;-77
2021/03/25 10:20:44;;;;;;;9.25;3.33;;;16.00;48.10;;;;;;5021185;28;20019;-77
2021/03/25 10:23:14;;;;;;;13.20;4.05;;;15.90;47.10;;;;;;5055546;28;20528;-77
2021/03/25 10:25:40;;;;;;;6.55;2.78;;;15.80;46.90;;;;;;5037009;28;20318;-77
2021/03/25 10:28:05;;;;;;;16.60;5.95;;;16.20;46.30;;;;;;5038087;28;20024;-77
2021/03/25 10:30:36;;;;;;;12.98;3.90;;;16.00;46.40;;;;;;5026092;28;20020;-77
2021/03/25 10:33:08;;;;;;;9.73;4.37;;;16.10;46.50;;;;;;5061134;28;20039;-77
2021/03/25 10:35:41;;;;;;;9.55;3.70;;;15.50;46.60;;;;;;5040386;28;20056;-76
2021/03/25 10:38:08;;;;;;;10.10;4.20;;;15.90;47.40;;;;;;5042972;28;20017;-77
2021/03/25 10:40:39;;;;;;;11.25;4.50;;;16.60;46.30;;;;;;5044596;28;20206;-77
2021/03/25 10:43:28;;;;;;;18.30;6.72;;;17.30;45.10;;;;;;5010249;28;20025;-77
2021/03/25 10:45:56;;;;;;;13.32;5.65;;;17.00;44.60;;;;;;5047407;28;20371;-77
2021/03/25 10:48:29;;;;;;;12.50;5.82;;;16.90;44.10;;;;;;5042648;28;20040;-77
2021/03/25 10:51:12;;;;;;;11.90;5.15;;;16.70;44.50;;;;;;5014651;28;20028;-76
2021/03/25 10:54:00;;;;;;;9.80;3.55;;;16.20;45.30;;;;;;5044913;28;20320;-78
2021/03/25 10:56:34;;;;;;;23.13;7.28;;;16.30;45.70;;;;;;5027903;28;20613;-76
2021/03/25 10:59:12;;;;;;;14.43;5.22;;;15.80;45.30;;;;;;5033384;28;20012;-76
2021/03/25 11:01:47;;;;;;;15.43;5.18;;;15.60;46.20;;;;;;5049944;28;20019;-75
2021/03/25 11:04:27;;;;;;;12.93;3.83;;;15.20;46.60;;;;;;5032360;28;20020;-75
2021/03/25 11:06:52;;;;;;;13.25;4.60;;;15.40;46.40;;;;;;5008526;28;20036;-74
2021/03/25 11:09:21;;;;;;;13.57;5.22;;;15.30;47.20;;;;;;4991199;28;20378;-74
2021/03/25 11:11:54;;;;;;;15.00;4.45;;;14.10;48.60;;;;;;5034586;28;20344;-75
2021/03/25 11:14:26;;;;;;;10.05;3.80;;;13.20;50.60;;;;;;5018733;28;20032;-74
2021/03/25 11:17:01;;;;;;;12.57;3.53;;;12.80;52.90;;;;;;5037786;28;20028;-78
2021/03/25 11:19:27;;;;;;;13.05;4.10;;;12.90;53.10;;;;;;5030763;28;20024;-73
2021/03/25 11:21:55;;;;;;;11.95;3.22;;;12.70;52.80;;;;;;5018716;28;20086;-74
2021/03/25 11:24:28;;;;;;;10.35;3.72;;;12.90;52.00;;;;;;5030396;28;20031;-73
2021/03/25 11:26:59;;;;;;;13.23;3.42;;;13.20;50.90;;;;;;5039857;28;20020;-74
2021/03/25 11:29:27;;;;;;;13.32;3.33;;;13.20;51.30;;;;;;5005644;28;20117;-74
2021/03/25 11:32:11;;;;;;;13.93;3.28;;;13.00;51.00;;;;;;5031057;28;20079;-74
2021/03/25 11:34:41;;;;;;;12.35;3.55;;;12.90;51.60;;;;;;5028363;28;20035;-75
2021/03/25 11:37:29;;;;;;;12.65;3.85;;;12.80;51.80;;;;;;5055092;28;20021;-74
2021/03/25 11:39:57;;;;;;;9.18;2.30;;;12.70;51.20;;;;;;5036848;28;20016;-74
2021/03/25 11:42:23;;;;;;;10.45;3.10;;;12.90;51.10;;;;;;5046492;28;20028;-72
2021/03/25 11:44:49;;;;;;;9.73;3.05;;;12.70;51.10;;;;;;5023482;28;20154;-73
2021/03/25 11:47:31;;;;;;;9.55;2.78;;;12.30;52.80;;;;;;5022663;28;20012;-73
2021/03/25 11:49:57;;;;;;;10.95;3.15;;;12.50;52.70;;;;;;5041068;28;20184;-73
2021/03/25 11:52:23;;;;;;;12.20;3.65;;;12.30;53.30;;;;;;5027013;28;20068;-72
2021/03/25 11:54:58;;;;;;;11.82;4.63;;;12.40;53.50;;;;;;5037804;28;20229;-74
2021/03/25 11:57:26;;;;;;;10.52;3.97;;;12.60;53.10;;;;;;5030207;28;20016;-74
2021/03/25 12:00:08;;;;;;;9.73;3.05;;;12.60;53.00;;;;;;5035048;28;20096;-74
2021/03/25 12:02:35;;;;;;;11.88;4.38;;;12.40;53.00;;;;;;5045297;28;20082;-73
2021/03/25 12:05:33;;;;;;;9.02;3.85;;;12.40;53.40;;;;;;5029444;28;20047;-74
2021/03/25 12:08:20;;;;;;;28.73;9.15;;;12.40;52.90;;;;;;5042650;28;20324;-74
2021/03/25 12:10:45;;;;;;;13.82;4.55;;;12.40;52.80;;;;;;5038449;28;20020;-75
2021/03/25 12:13:11;;;;;;;11.20;3.65;;;12.30;53.70;;;;;;5048135;28;20035;-72
2021/03/25 12:15:37;;;;;;;15.43;4.90;;;12.20;53.80;;;;;;5050055;28;20032;-73
2021/03/25 12:18:06;;;;;;;12.20;4.47;;;12.30;53.40;;;;;;5044024;28;20021;-75
2021/03/25 12:20:32;;;;;;;26.52;5.55;;;12.30;53.20;;;;;;5040401;28;20822;-74
2021/03/25 12:23:24;;;;;;;10.68;3.30;;;12.40;51.90;;;;;;5010389;28;20020;-72
2021/03/25 12:25:51;;;;;;;7.10;2.40;;;12.30;51.50;;;;;;5006546;28;20020;-73
2021/03/25 12:28:17;;;;;;;8.93;2.90;;;12.30;50.70;;;;;;5022756;28;20115;-73
2021/03/25 12:30:43;;;;;;;9.95;2.70;;;12.40;51.80;;;;;;5020887;28;20290;-74
2021/03/25 12:33:23;;;;;;;11.48;2.50;;;12.10;52.80;;;;;;5010951;28;20081;-72
2021/03/25 12:35:49;;;;;;;6.95;2.33;;;12.00;53.80;;;;;;5050425;28;20387;-74
2021/03/25 12:38:14;;;;;;;7.70;2.40;;;12.10;54.00;;;;;;5034397;28;20252;-75
2021/03/25 12:40:40;;;;;;;9.77;3.25;;;12.10;53.00;;;;;;5047510;28;20184;-74
2021/03/25 12:43:06;;;;;;;9.70;2.75;;;12.40;51.90;;;;;;5039185;28;20017;-73
2021/03/25 12:45:36;;;;;;;10.63;2.90;;;12.60;51.40;;;;;;5037286;28;20347;-74
2021/03/25 12:48:01;;;;;;;8.68;2.40;;;12.40;52.00;;;;;;5053711;28;20023;-74
2021/03/25 12:50:27;;;;;;;8.90;2.70;;;12.40;52.40;;;;;;5037723;28;20020;-73
2021/03/25 12:52:53;;;;;;;16.13;4.60;;;12.40;52.00;;;;;;5061838;28;20079;-74
2021/03/25 12:55:19;;;;;;;11.10;3.90;;;12.50;51.90;;;;;;5040718;28;20097;-74
2021/03/25 12:57:45;;;;;;;9.55;2.85;;;12.70;51.90;;;;;;5057316;28;20023;-75
2021/03/25 13:00:18;;;;;;;8.98;2.47;;;12.80;51.30;;;;;;5048774;28;20016;-72
2021/03/25 13:02:44;;;;;;;7.38;2.00;;;12.70;50.80;;;;;;5085462;28;20016;-73
2021/03/25 13:05:10;;;;;;;8.10;2.50;;;12.80;50.80;;;;;;5063045;28;20027;-72
2021/03/25 13:07:36;;;;;;;8.88;3.20;;;12.90;50.70;;;;;;5064572;28;20059;-73
2021/03/25 13:10:03;;;;;;;10.13;3.85;;;12.70;51.80;;;;;;5067255;28;20232;-72
2021/03/25 13:12:29;;;;;;;8.05;2.90;;;12.60;52.10;;;;;;5038909;28;20043;-73
2021/03/25 13:14:55;;;;;;;11.05;2.88;;;12.60;51.90;;;;;;5056072;28;20769;-75
2021/03/25 13:17:21;;;;;;;7.88;2.38;;;12.80;51.80;;;;;;5039873;28;20380;-72